Time;durP1;ratioP1;P1;durP2;ratioP2;P2;SDS_P1;SDS_P2;PMS_P1;PMS_P2;Temp;Humidity;BMP_temperature;BMP_pressure;BME280_temperature;BME280_humidity;BME280_pressure;Samples;Min_cycle;Max_cycle;Signal;HPM_P1;HPM_P2
2023/06/03 00:02:02;;;;;;;69.55;39.08;;;15.00;99.90;;;;;;5075897;28;20028;-65
2023/06/03 00:04:29;;;;;;;60.75;41.08;;;15.00;99.90;;;;;;5059166;28;20498;-65
2023/06/03 00:06:58;;;;;;;64.28;39.80;;;14.90;99.90;;;;;;5077308;28;20032;-66
2023/06/03 00:09:25;;;;;;;56.78;38.05;;;14.90;99.90;;;;;;5077283;28;20020;-65
2023/06/03 00:11:51;;;;;;;57.83;36.97;;;14.90;99.90;;;;;;5077601;28;20029;-65
2023/06/03 00:14:18;;;;;;;66.68;43.90;;;15.00;99.90;;;;;;5075914;28;20036;-65
2023/06/03 00:16:47;;;;;;;75.30;44.72;;;15.00;99.90;;;;;;5076286;28;20029;-66
2023/06/03 00:19:14;;;;;;;69.43;41.00;;;15.10;99.90;;;;;;5077436;28;20568;-65
2023/06/03 00:21:49;;;;;;;68.25;41.95;;;15.20;99.90;;;;;;5076092;28;20405;-65
2023/06/03 00:24:27;;;;;;;62.40;41.88;;;15.20;99.90;;;;;;5075878;28;20169;-65
2023/06/03 00:26:53;;;;;;;71.07;43.22;;;15.40;99.90;;;;;;5076987;28;20485;-65
2023/06/03 00:29:20;;;;;;;66.20;42.20;;;15.30;99.90;;;;;;5077366;28;20024;-65
2023/06/03 00:31:46;;;;;;;67.68;41.90;;;15.40;99.90;;;;;;5074942;28;20032;-65
2023/06/03 00:34:13;;;;;;;65.60;41.97;;;15.40;99.90;;;;;;5075738;28;20029;-66
2023/06/03 00:36:40;;;;;;;63.28;41.80;;;15.30;99.90;;;;;;5075709;28;20039;-66
2023/06/03 00:39:07;;;;;;;81.85;46.33;;;15.10;99.90;;;;;;5076810;28;20035;-65
2023/06/03 00:41:33;;;;;;;68.72;43.15;;;15.10;99.90;;;;;;5075748;28;20405;-66
2023/06/03 00:43:59;;;;;;;74.03;43.30;;;15.00;99.90;;;;;;5075439;28;20059;-65
2023/06/03 00:46:25;;;;;;;67.20;41.47;;;15.10;99.90;;;;;;5076574;28;20496;-66
2023/06/03 00:48:52;;;;;;;68.07;42.80;;;15.20;99.90;;;;;;5075183;28;20029;-66
2023/06/03 00:51:19;;;;;;;61.78;39.92;;;15.10;99.90;;;;;;5076676;28;20035;-66
2023/06/03 00:53:45;;;;;;;61.63;40.88;;;15.10;99.90;;;;;;5076474;28;20028;-66
2023/06/03 00:56:17;;;;;;;64.05;40.58;;;15.10;99.90;;;;;;5076357;28;20052;-66
2023/06/03 00:58:43;;;;;;;62.92;39.63;;;15.10;99.90;;;;;;5054905;28;20036;-66
2023/06/03 01:01:10;;;;;;;62.35;39.10;;;15.10;99.90;;;;;;5056434;28;20033;-66
2023/06/03 01:03:36;;;;;;;57.55;39.05;;;15.10;99.90;;;;;;5071835;28;20033;-66
2023/06/03 01:06:14;;;;;;;63.13;40.40;;;15.20;99.90;;;;;;5038657;28;20037;-66
2023/06/03 01:08:55;;;;;;;62.78;40.20;;;15.10;99.90;;;;;;5056165;28;20041;-66
2023/06/03 01:12:06;;;;;;;50.60;36.58;;;15.00;99.90;;;;;;5056205;28;20036;-66
2023/06/03 01:14:42;;;;;;;58.50;36.42;;;15.00;99.90;;;;;;4994460;28;20058;-66
2023/06/03 01:17:12;;;;;;;59.00;37.78;;;15.10;99.90;;;;;;4994456;28;20030;-66
2023/06/03 01:19:50;;;;;;;59.53;38.05;;;15.20;99.90;;;;;;4994240;28;20042;-66
2023/06/03 01:22:18;;;;;;;62.40;38.80;;;15.20;99.90;;;;;;4994233;28;20027;-66
2023/06/03 01:24:45;;;;;;;66.38;40.83;;;15.30;99.90;;;;;;4994335;28;20415;-66
2023/06/03 01:27:12;;;;;;;64.05;38.88;;;15.20;99.90;;;;;;4993960;28;20026;-65
2023/06/03 01:29:41;;;;;;;58.50;39.15;;;15.30;99.90;;;;;;4994096;28;20073;-66
2023/06/03 01:32:11;;;;;;;65.47;39.97;;;15.30;99.90;;;;;;4993959;28;20046;-66
2023/06/03 01:34:38;;;;;;;59.80;39.90;;;15.10;99.90;;;;;;4994203;28;20036;-66
2023/06/03 01:37:07;;;;;;;61.65;38.53;;;15.10;99.90;;;;;;4994027;28;20441;-65
2023/06/03 01:39:35;;;;;;;52.50;35.72;;;15.00;99.90;;;;;;4993991;28;20034;-66
2023/06/03 01:42:01;;;;;;;51.80;35.13;;;15.00;99.90;;;;;;4977518;28;20026;-65
2023/06/03 01:44:27;;;;;;;49.50;35.10;;;15.00;99.90;;;;;;5003633;28;20048;-65
2023/06/03 01:46:54;;;;;;;45.97;33.88;;;15.00;99.90;;;;;;5070897;28;20112;-66
2023/06/03 01:49:20;;;;;;;57.92;35.85;;;14.90;99.90;;;;;;5054248;28;20517;-66
2023/06/03 01:51:47;;;;;;;53.58;34.95;;;14.80;99.90;;;;;;5054189;28;20471;-66
2023/06/03 01:54:13;;;;;;;52.42;34.50;;;14.70;99.90;;;;;;5070680;28;20091;-66
2023/06/03 01:56:42;;;;;;;54.88;36.55;;;14.70;99.90;;;;;;5054346;28;20045;-66
2023/06/03 01:59:08;;;;;;;54.20;33.70;;;14.70;99.90;;;;;;5073941;28;20371;-65
2023/06/03 02:01:36;;;;;;;48.13;33.70;;;14.70;99.90;;;;;;5073788;28;20040;-65
2023/06/03 02:04:02;;;;;;;55.45;35.95;;;14.70;99.90;;;;;;5073881;28;20394;-66
2023/06/03 02:06:30;;;;;;;59.08;36.55;;;14.70;99.90;;;;;;5073824;28;20036;-65
2023/06/03 02:08:56;;;;;;;55.65;36.25;;;14.50;99.90;;;;;;5073576;28;20031;-66
2023/06/03 02:11:22;;;;;;;68.40;37.55;;;14.50;99.90;;;;;;5057045;28;20460;-66
2023/06/03 02:13:48;;;;;;;53.58;35.63;;;14.50;99.90;;;;;;5073796;28;20031;-66
2023/06/03 02:16:14;;;;;;;50.38;34.90;;;14.50;99.90;;;;;;5057006;28;20033;-66
2023/06/03 02:18:40;;;;;;;51.65;34.33;;;14.50;99.90;;;;;;5073457;28;20045;-65
2023/06/03 02:21:06;;;;;;;48.72;35.30;;;14.40;99.90;;;;;;5073563;28;20024;-66
2023/06/03 02:23:32;;;;;;;49.75;34.75;;;14.40;99.90;;;;;;5074974;28;20039;-66
2023/06/03 02:25:58;;;;;;;52.05;35.97;;;14.40;99.90;;;;;;5074624;28;20063;-66
2023/06/03 02:28:24;;;;;;;50.53;35.08;;;14.40;99.90;;;;;;5056547;28;20085;-66
2023/06/03 02:30:51;;;;;;;50.45;33.85;;;14.30;99.90;;;;;;5074777;28;20024;-66
2023/06/03 02:33:17;;;;;;;61.78;35.50;;;14.30;99.90;;;;;;5073363;28;20077;-66
2023/06/03 02:35:43;;;;;;;50.58;33.72;;;14.30;99.90;;;;;;5073407;28;20470;-66
2023/06/03 02:38:09;;;;;;;50.92;33.47;;;14.40;99.90;;;;;;5056731;28;20085;-66
2023/06/03 02:40:35;;;;;;;54.92;33.22;;;14.30;99.90;;;;;;5056750;28;20038;-66
2023/06/03 02:43:01;;;;;;;49.35;33.70;;;14.30;99.90;;;;;;5073270;28;20024;-66
2023/06/03 02:45:28;;;;;;;56.78;33.95;;;14.30;99.90;;;;;;5073296;28;20024;-66
2023/06/03 02:47:54;;;;;;;50.63;33.53;;;14.20;99.90;;;;;;5056284;28;20040;-66
2023/06/03 02:50:20;;;;;;;46.85;31.98;;;14.10;99.90;;;;;;5073104;28;20127;-66
2023/06/03 02:52:46;;;;;;;48.22;33.58;;;14.10;99.90;;;;;;5056564;28;20032;-66
2023/06/03 02:55:13;;;;;;;52.08;32.70;;;14.10;99.90;;;;;;5072696;28;20029;-66
2023/06/03 02:57:39;;;;;;;49.35;33.55;;;14.00;99.90;;;;;;5072951;28;20056;-66
2023/06/03 03:00:10;;;;;;;46.88;31.35;;;14.10;99.90;;;;;;5073173;28;20119;-66
2023/06/03 03:02:37;;;;;;;47.80;33.78;;;14.20;99.90;;;;;;5056454;28;20032;-66
2023/06/03 03:05:03;;;;;;;52.15;36.03;;;14.10;99.90;;;;;;5073086;28;20035;-66
2023/06/03 03:07:32;;;;;;;53.10;33.38;;;14.10;99.90;;;;;;5072781;28;20032;-66
2023/06/03 03:09:59;;;;;;;62.95;35.28;;;14.10;99.90;;;;;;5072690;28;20395;-66
2023/06/03 03:12:25;;;;;;;52.58;35.20;;;14.20;99.90;;;;;;5073027;28;20490;-66
2023/06/03 03:14:51;;;;;;;48.40;33.70;;;14.20;99.90;;;;;;5073036;28;20097;-66
2023/06/03 03:17:18;;;;;;;51.80;35.17;;;14.20;99.90;;;;;;5073003;28;20111;-66
2023/06/03 03:19:45;;;;;;;57.92;35.75;;;14.20;99.90;;;;;;5072908;28;20488;-66
2023/06/03 03:22:11;;;;;;;59.53;36.95;;;14.20;99.90;;;;;;5056215;28;20075;-66
2023/06/03 03:24:40;;;;;;;56.03;36.00;;;14.20;99.90;;;;;;5072729;28;20078;-66
2023/06/03 03:27:07;;;;;;;55.67;36.03;;;14.20;99.90;;;;;;5072841;28;20074;-66
2023/06/03 03:29:35;;;;;;;53.03;35.22;;;14.30;99.90;;;;;;5072738;28;20029;-66
2023/06/03 03:32:07;;;;;;;49.65;33.78;;;14.50;99.90;;;;;;5072701;28;20021;-66
2023/06/03 03:34:36;;;;;;;48.22;34.15;;;14.50;99.90;;;;;;5072828;28;20381;-66
2023/06/03 03:37:04;;;;;;;58.33;34.92;;;14.50;99.90;;;;;;5072595;28;20060;-66
2023/06/03 03:39:30;;;;;;;57.97;34.47;;;14.50;99.90;;;;;;5072606;28;20093;-66
2023/06/03 03:41:56;;;;;;;51.45;33.72;;;14.30;99.90;;;;;;5072739;28;20021;-66
2023/06/03 03:44:23;;;;;;;48.15;32.17;;;14.30;99.90;;;;;;5055812;28;20052;-66
2023/06/03 03:47:01;;;;;;;53.80;33.00;;;14.10;99.90;;;;;;5072725;28;20029;-66
2023/06/03 03:49:30;;;;;;;51.80;33.30;;;13.90;99.90;;;;;;5052493;28;20035;-66
2023/06/03 03:52:04;;;;;;;51.78;33.42;;;14.10;99.90;;;;;;5072634;28;20028;-66
2023/06/03 03:54:30;;;;;;;50.90;35.15;;;14.30;99.90;;;;;;5072641;28;20051;-66
2023/06/03 03:56:56;;;;;;;56.80;34.97;;;14.40;99.90;;;;;;5069683;28;20049;-66
2023/06/03 03:59:27;;;;;;;57.42;36.90;;;14.40;99.90;;;;;;5036085;28;20474;-66
2023/06/03 04:01:55;;;;;;;58.00;36.42;;;14.50;99.90;;;;;;5052420;28;20371;-66
2023/06/03 04:04:42;;;;;;;64.03;38.88;;;14.50;99.90;;;;;;5052486;28;20073;-66
2023/06/03 04:07:11;;;;;;;63.50;37.70;;;14.50;99.90;;;;;;5055140;28;20025;-66
2023/06/03 04:09:39;;;;;;;60.50;37.03;;;14.60;99.90;;;;;;5056032;28;20116;-65
2023/06/03 04:12:17;;;;;;;62.83;37.67;;;14.70;99.90;;;;;;5056112;28;20025;-66
2023/06/03 04:14:49;;;;;;;56.50;37.78;;;14.80;99.90;;;;;;5056073;28;20024;-66
2023/06/03 04:17:25;;;;;;;65.25;39.38;;;14.90;99.90;;;;;;5056097;28;20051;-66
2023/06/03 04:19:52;;;;;;;55.75;37.30;;;15.10;99.90;;;;;;5055758;28;20025;-65
2023/06/03 04:22:24;;;;;;;51.15;34.72;;;15.10;99.90;;;;;;5055978;28;20028;-65
2023/06/03 04:24:58;;;;;;;55.83;37.55;;;15.20;99.90;;;;;;5055987;28;20084;-65
2023/06/03 04:27:30;;;;;;;52.35;34.72;;;15.10;99.90;;;;;;5055839;28;20028;-65
2023/06/03 04:29:57;;;;;;;60.55;36.60;;;15.00;99.90;;;;;;5055927;28;20549;-66
2023/06/03 04:32:24;;;;;;;61.92;37.35;;;15.10;99.90;;;;;;5055676;28;20036;-65
2023/06/03 04:34:56;;;;;;;59.25;37.03;;;15.20;99.90;;;;;;5056893;28;20595;-65
2023/06/03 04:37:23;;;;;;;55.88;35.33;;;15.30;99.90;;;;;;5055559;28;20078;-65
2023/06/03 04:39:51;;;;;;;58.88;36.92;;;15.20;99.90;;;;;;5055565;28;20029;-65
2023/06/03 04:42:17;;;;;;;56.17;35.92;;;15.30;99.90;;;;;;5055444;28;20479;-66
2023/06/03 04:44:45;;;;;;;55.33;37.40;;;15.40;99.90;;;;;;5055584;28;20044;-66
2023/06/03 04:47:12;;;;;;;52.78;34.70;;;15.50;99.90;;;;;;5055224;28;20032;-66
2023/06/03 04:49:39;;;;;;;52.33;35.08;;;15.30;99.90;;;;;;5055302;28;20025;-66
2023/06/03 04:52:09;;;;;;;52.15;34.00;;;15.20;99.90;;;;;;5055295;28;20025;-66
2023/06/03 04:54:38;;;;;;;52.88;34.30;;;15.20;99.90;;;;;;5038982;28;20029;-66
2023/06/03 04:57:05;;;;;;;52.00;35.05;;;15.30;99.90;;;;;;5058751;28;20132;-66
2023/06/03 04:59:31;;;;;;;46.25;31.80;;;15.40;99.90;;;;;;5058371;28;20060;-66
2023/06/03 05:01:58;;;;;;;47.33;33.38;;;15.50;99.90;;;;;;5075137;28;20540;-66
2023/06/03 05:04:29;;;;;;;48.65;34.15;;;15.70;99.90;;;;;;5075027;28;20024;-66
2023/06/03 05:06:57;;;;;;;44.85;32.00;;;15.60;99.90;;;;;;5075108;28;20390;-65
2023/06/03 05:09:23;;;;;;;44.72;32.28;;;15.60;99.90;;;;;;5074706;28;20371;-65
2023/06/03 05:11:52;;;;;;;49.40;34.25;;;15.80;99.90;;;;;;5074925;28;20021;-66
2023/06/03 05:14:18;;;;;;;46.55;33.92;;;15.90;99.90;;;;;;5076265;28;20029;-66
2023/06/03 05:16:44;;;;;;;54.00;34.70;;;15.90;99.90;;;;;;5074618;28;20028;-66
2023/06/03 05:19:11;;;;;;;53.50;36.95;;;16.10;99.90;;;;;;5057854;28;20048;-66
2023/06/03 05:21:40;;;;;;;52.40;36.42;;;16.10;99.90;;;;;;5074901;28;20036;-66
2023/06/03 05:24:06;;;;;;;58.42;38.50;;;16.30;99.90;;;;;;5074798;28;20039;-66
2023/06/03 05:26:32;;;;;;;59.10;40.08;;;16.40;99.90;;;;;;5074581;28;20034;-65
2023/06/03 05:28:58;;;;;;;61.58;40.83;;;16.50;99.90;;;;;;5074619;28;20032;-66
2023/06/03 05:31:25;;;;;;;65.82;39.58;;;16.60;99.90;;;;;;5058067;28;20043;-66
2023/06/03 05:33:51;;;;;;;61.58;39.00;;;16.80;99.90;;;;;;5075718;28;20103;-66
2023/06/03 05:36:20;;;;;;;55.60;39.22;;;16.90;99.90;;;;;;5074638;28;20033;-65
2023/06/03 05:38:46;;;;;;;60.75;39.20;;;17.10;99.90;;;;;;5075641;28;20024;-66
2023/06/03 05:41:15;;;;;;;62.40;41.85;;;17.10;99.90;;;;;;5074454;28;20036;-66
2023/06/03 05:43:41;;;;;;;54.60;38.20;;;17.30;99.90;;;;;;5074231;28;20059;-66
2023/06/03 05:46:07;;;;;;;54.35;37.55;;;17.30;99.90;;;;;;5057469;28;20127;-66
2023/06/03 05:48:34;;;;;;;56.85;38.88;;;17.50;99.90;;;;;;5074173;28;20123;-66
2023/06/03 05:51:01;;;;;;;52.97;38.17;;;17.60;99.90;;;;;;5057746;28;20036;-66
2023/06/03 05:53:29;;;;;;;52.05;36.45;;;17.70;99.90;;;;;;5057753;28;20024;-66
2023/06/03 05:55:59;;;;;;;56.53;38.33;;;17.80;99.90;;;;;;5073915;28;20073;-66
2023/06/03 05:58:27;;;;;;;69.22;39.70;;;17.90;99.90;;;;;;5052615;28;20313;-66
2023/06/03 06:00:53;;;;;;;80.35;42.00;;;18.10;99.90;;;;;;5052698;28;20158;-66
2023/06/03 06:03:19;;;;;;;80.15;44.30;;;18.20;99.90;;;;;;5052891;28;20051;-66
2023/06/03 06:05:46;;;;;;;91.72;45.53;;;18.20;99.90;;;;;;5052528;28;20029;-66
2023/06/03 06:08:12;;;;;;;158.75;60.42;;;18.30;99.90;;;;;;5052461;28;20056;-66
2023/06/03 06:10:38;;;;;;;153.95;61.38;;;18.40;99.90;;;;;;5052397;28;20421;-66
2023/06/03 06:13:04;;;;;;;74.60;40.38;;;18.50;99.90;;;;;;5035857;28;20033;-65
2023/06/03 06:15:31;;;;;;;72.10;40.35;;;18.50;99.90;;;;;;5052493;28;20086;-66
2023/06/03 06:17:58;;;;;;;91.30;45.75;;;18.40;99.90;;;;;;5035779;28;20091;-66
2023/06/03 06:20:25;;;;;;;114.75;50.75;;;18.60;99.90;;;;;;5052460;28;20053;-66
2023/06/03 06:22:52;;;;;;;118.60;53.55;;;18.70;99.90;;;;;;5035719;28;20353;-66
2023/06/03 06:25:18;;;;;;;112.82;51.50;;;18.90;99.90;;;;;;5052400;28;20087;-66
2023/06/03 06:27:45;;;;;;;101.20;49.05;;;19.00;99.90;;;;;;5035455;28;20072;-66
2023/06/03 06:30:16;;;;;;;128.15;55.30;;;18.90;99.90;;;;;;5049109;28;20089;-66
2023/06/03 06:32:48;;;;;;;;;;;19.10;99.90;;;;;;5070885;28;20025;-66
2023/06/03 06:35:16;;;;;;;110.97;52.83;;;19.10;99.90;;;;;;5086814;28;19935;-66
2023/06/03 06:37:42;;;;;;;112.00;52.65;;;19.30;99.90;;;;;;5070096;28;20056;-66
2023/06/03 06:40:29;;;;;;;143.50;58.58;;;19.40;99.90;;;;;;5054567;28;20116;-66
2023/06/03 06:42:56;;;;;;;154.25;60.63;;;19.70;99.90;;;;;;5053197;28;20033;-66
2023/06/03 06:45:45;;;;;;;139.65;55.65;;;19.80;99.90;;;;;;5012447;28;20041;-66
2023/06/03 06:48:13;;;;;;;143.35;56.03;;;20.00;99.90;;;;;;5011867;28;20037;-66
2023/06/03 06:50:54;;;;;;;142.13;58.38;;;20.00;99.90;;;;;;5012065;28;20034;-66
2023/06/03 06:53:26;;;;;;;161.73;61.15;;;20.00;99.90;;;;;;4995958;28;20168;-66
2023/06/03 06:55:59;;;;;;;165.80;61.03;;;20.20;99.90;;;;;;5011850;28;20037;-66
2023/06/03 06:58:38;;;;;;;161.65;60.65;;;20.50;99.90;;;;;;5027390;28;20048;-66
2023/06/03 07:01:06;;;;;;;122.05;47.20;;;20.80;99.90;;;;;;5015513;28;20524;-66
2023/06/03 07:03:36;;;;;;;119.13;48.83;;;21.00;99.90;;;;;;5031881;28;20034;-66
2023/06/03 07:06:02;;;;;;;113.57;47.13;;;21.10;99.90;;;;;;5015552;28;20053;-66
2023/06/03 07:08:31;;;;;;;148.10;53.63;;;21.30;99.90;;;;;;5015363;28;20033;-66
2023/06/03 07:11:04;;;;;;;145.27;53.70;;;21.60;99.90;;;;;;5015072;28;20048;-66
2023/06/03 07:13:37;;;;;;;108.15;44.33;;;21.90;99.90;;;;;;5031834;28;20026;-66
2023/06/03 07:16:04;;;;;;;55.28;28.05;;;22.10;99.90;;;;;;5015354;28;20041;-66
2023/06/03 07:18:32;;;;;;;53.60;26.00;;;22.50;99.90;;;;;;5031213;28;20403;-66
2023/06/03 07:20:58;;;;;;;45.00;22.65;;;22.60;99.90;;;;;;5015267;28;20032;-66
2023/06/03 07:23:26;;;;;;;32.83;19.00;;;22.60;99.90;;;;;;5059225;28;20822;-64
2023/06/03 07:25:54;;;;;;;27.35;17.42;;;22.50;99.90;;;;;;5072688;28;20025;-63
2023/06/03 07:28:31;;;;;;;;;;;22.40;99.90;;;;;;5073192;28;20028;-64
2023/06/03 07:31:03;;;;;;;23.45;17.15;;;22.40;99.90;;;;;;5072856;28;19908;-63
2023/06/03 07:33:34;;;;;;;23.48;16.67;;;22.40;99.90;;;;;;5074176;28;20462;-63
2023/06/03 07:36:03;;;;;;;24.85;16.90;;;22.30;99.90;;;;;;5073022;28;20028;-64
2023/06/03 07:38:38;;;;;;;27.63;16.73;;;22.20;99.90;;;;;;5056412;28;20434;-64
2023/06/03 07:41:09;;;;;;;23.40;16.40;;;22.20;99.90;;;;;;5074250;28;20039;-64
2023/06/03 07:43:39;;;;;;;22.15;17.05;;;22.40;99.90;;;;;;5076655;28;20036;-63
2023/06/03 07:46:06;;;;;;;25.40;17.02;;;22.20;99.90;;;;;;5077789;28;20226;-64
2023/06/03 07:48:33;;;;;;;24.33;17.17;;;22.20;99.90;;;;;;5077829;28;20032;-63
2023/06/03 07:50:59;;;;;;;25.15;18.73;;;22.10;99.90;;;;;;5076278;28;20189;-64
2023/06/03 07:53:26;;;;;;;26.20;18.50;;;22.10;99.90;;;;;;5076029;28;20067;-63
2023/06/03 07:55:52;;;;;;;22.45;15.77;;;22.20;99.90;;;;;;5076223;28;20078;-63
2023/06/03 07:58:18;;;;;;;24.92;16.70;;;22.40;99.90;;;;;;5077559;28;20037;-63
2023/06/03 08:00:49;;;;;;;24.48;17.83;;;22.50;99.90;;;;;;5077342;28;20482;-63
2023/06/03 08:03:22;;;;;;;29.27;18.42;;;22.50;99.90;;;;;;5077474;28;20448;-63
2023/06/03 08:05:50;;;;;;;29.50;18.42;;;22.30;99.90;;;;;;5077383;28;20482;-63
2023/06/03 08:08:18;;;;;;;28.95;17.52;;;22.20;99.90;;;;;;5077307;28;20103;-63
2023/06/03 08:10:49;;;;;;;29.98;17.48;;;22.10;99.90;;;;;;5076030;28;20067;-63
2023/06/03 08:13:17;;;;;;;24.58;17.67;;;22.20;99.90;;;;;;5075942;28;20032;-63
2023/06/03 08:15:43;;;;;;;24.55;16.38;;;22.40;99.90;;;;;;5077121;28;20082;-63
2023/06/03 08:18:13;;;;;;;27.10;16.42;;;22.40;99.90;;;;;;5077486;28;20493;-63
2023/06/03 08:20:39;;;;;;;26.83;16.15;;;22.40;99.90;;;;;;5077300;28;20343;-63
2023/06/03 08:23:05;;;;;;;23.65;17.05;;;22.10;99.90;;;;;;5077141;28;20112;-63
2023/06/03 08:25:31;;;;;;;24.27;16.23;;;22.20;99.90;;;;;;5077186;28;20482;-63
2023/06/03 08:27:57;;;;;;;22.10;16.35;;;22.30;99.90;;;;;;5075677;28;20047;-63
2023/06/03 08:30:25;;;;;;;23.88;16.35;;;22.40;99.90;;;;;;5077186;28;20516;-63
2023/06/03 08:32:51;;;;;;;27.38;18.08;;;22.50;99.90;;;;;;5076697;28;20032;-63
2023/06/03 08:35:20;;;;;;;27.67;18.17;;;22.70;99.90;;;;;;5076871;28;20100;-63
2023/06/03 08:37:46;;;;;;;29.77;20.95;;;22.80;99.90;;;;;;5076881;28;20035;-63
2023/06/03 08:40:17;;;;;;;28.35;20.35;;;23.00;99.90;;;;;;5075581;28;20039;-63
2023/06/03 08:42:48;;;;;;;32.03;20.23;;;23.20;99.90;;;;;;5075476;28;20044;-63
2023/06/03 08:45:15;;;;;;;31.52;18.15;;;23.10;99.90;;;;;;5058580;28;20025;-63
2023/06/03 08:47:41;;;;;;;28.95;17.15;;;22.50;99.90;;;;;;5076438;28;20046;-63
2023/06/03 08:50:10;;;;;;;24.48;15.75;;;22.70;99.90;;;;;;5075347;28;20408;-63
2023/06/03 08:52:42;;;;;;;30.15;15.90;;;23.00;99.90;;;;;;5074705;28;20025;-63
2023/06/03 08:55:14;;;;;;;29.02;16.20;;;22.70;99.90;;;;;;5076780;28;20029;-63
2023/06/03 08:57:57;;;;;;;23.90;15.52;;;23.00;99.90;;;;;;5067469;28;20061;-63
2023/06/03 09:00:24;;;;;;;23.75;15.48;;;22.50;99.90;;;;;;5055126;28;20127;-63
2023/06/03 09:02:52;;;;;;;27.48;15.88;;;22.70;99.90;;;;;;5038781;28;20114;-63
2023/06/03 09:05:20;;;;;;;31.23;17.05;;;22.50;99.90;;;;;;5055075;28;20025;-63
2023/06/03 09:07:47;;;;;;;26.45;15.30;;;22.40;99.90;;;;;;5056329;28;20522;-63
2023/06/03 09:10:19;;;;;;;26.55;16.85;;;22.60;99.90;;;;;;5054969;28;20355;-63
2023/06/03 09:12:46;;;;;;;30.00;16.10;;;22.50;99.90;;;;;;5056156;28;20108;-63
2023/06/03 09:15:16;;;;;;;23.45;16.33;;;22.80;99.90;;;;;;5038313;28;20029;-63
2023/06/03 09:17:43;;;;;;;27.55;16.23;;;22.70;99.90;;;;;;5054908;28;20032;-63
2023/06/03 09:20:13;;;;;;;30.35;17.60;;;22.70;99.90;;;;;;5038309;28;20037;-63
2023/06/03 09:22:42;;;;;;;28.13;17.40;;;22.50;99.90;;;;;;5056095;28;20037;-63
2023/06/03 09:25:08;;;;;;;24.20;15.30;;;21.90;99.90;;;;;;5055776;28;20079;-63
2023/06/03 09:27:35;;;;;;;25.48;15.45;;;21.60;99.90;;;;;;5055773;28;20029;-63
2023/06/03 09:30:05;;;;;;;19.63;13.80;;;21.60;99.90;;;;;;5054706;28;20372;-63
2023/06/03 09:32:36;;;;;;;20.48;13.98;;;21.60;99.90;;;;;;5055647;28;20036;-64
2023/06/03 09:35:05;;;;;;;;;;;21.80;99.90;;;;;;5056141;28;20060;-63
2023/06/03 09:37:34;;;;;;;22.23;14.68;;;21.40;99.90;;;;;;5054565;28;19921;-64
2023/06/03 09:40:02;;;;;;;23.23;14.68;;;21.40;99.90;;;;;;5055622;28;20536;-64
2023/06/03 09:42:44;;;;;;;22.80;14.85;;;21.60;99.90;;;;;;5055796;28;20492;-64
2023/06/03 09:45:31;;;;;;;30.13;17.90;;;21.80;99.90;;;;;;5055679;28;20036;-64
2023/06/03 09:48:00;;;;;;;30.77;19.15;;;21.50;99.90;;;;;;5055240;28;20433;-64
2023/06/03 09:50:28;;;;;;;28.55;17.23;;;21.60;99.90;;;;;;5054011;28;20036;-64
2023/06/03 09:52:54;;;;;;;40.08;21.27;;;21.70;99.90;;;;;;5055506;28;20048;-64
2023/06/03 09:55:28;;;;;;;33.63;19.77;;;21.70;99.90;;;;;;5053988;28;20036;-64
2023/06/03 09:58:12;;;;;;;28.02;18.45;;;21.90;99.90;;;;;;5064623;28;20116;-64
2023/06/03 10:00:49;;;;;;;34.42;19.27;;;22.10;99.90;;;;;;5074270;28;20166;-64
2023/06/03 10:03:20;;;;;;;28.55;17.55;;;21.80;99.90;;;;;;5075175;28;20386;-64
2023/06/03 10:05:46;;;;;;;29.13;17.92;;;22.00;99.90;;;;;;5073220;28;20508;-64
2023/06/03 10:08:12;;;;;;;30.77;17.67;;;22.40;99.90;;;;;;5074990;28;20024;-63
2023/06/03 10:10:58;;;;;;;30.63;17.95;;;22.30;99.90;;;;;;5075081;28;20434;-64
2023/06/03 10:13:24;;;;;;;28.83;16.25;;;22.40;99.90;;;;;;5074986;28;20466;-64
2023/06/03 10:15:54;;;;;;;25.25;16.98;;;22.20;99.90;;;;;;5074836;28;20649;-64
2023/06/03 10:18:37;;;;;;;22.90;16.33;;;22.40;99.90;;;;;;5075280;28;20056;-63
2023/06/03 10:21:08;;;;;;;24.92;14.52;;;22.40;99.90;;;;;;5074993;28;20028;-64
2023/06/03 10:23:37;;;;;;;21.42;13.35;;;22.40;99.90;;;;;;5075069;28;20040;-64
2023/06/03 10:26:05;;;;;;;27.45;14.70;;;22.80;99.90;;;;;;5074915;28;20039;-64
2023/06/03 10:28:32;;;;;;;21.88;14.55;;;22.60;99.90;;;;;;5075169;28;20028;-64
2023/06/03 10:31:00;;;;;;;18.45;13.98;;;22.90;99.90;;;;;;5074626;28;20029;-64
2023/06/03 10:33:28;;;;;;;26.40;15.15;;;22.10;99.90;;;;;;5074797;28;20035;-64
2023/06/03 10:35:56;;;;;;;19.65;13.90;;;22.30;99.90;;;;;;5074758;28;20101;-64
2023/06/03 10:38:23;;;;;;;26.30;14.15;;;22.80;99.90;;;;;;5074548;28;20032;-64
2023/06/03 10:40:49;;;;;;;21.25;13.70;;;23.10;99.90;;;;;;5074819;28;20119;-64
2023/06/03 10:43:16;;;;;;;22.67;14.10;;;22.20;99.90;;;;;;5074811;28;20025;-64
2023/06/03 10:45:43;;;;;;;22.00;12.80;;;22.70;99.90;;;;;;5074568;28;20086;-63
2023/06/03 10:48:13;;;;;;;19.60;13.13;;;23.20;99.90;;;;;;5074545;28;20037;-64
2023/06/03 10:51:08;;;;;;;18.83;12.95;;;23.10;99.90;;;;;;5074615;28;20429;-64
2023/06/03 10:53:56;;;;;;;17.08;11.18;;;23.00;99.90;;;;;;5045091;28;20121;-64
2023/06/03 10:56:28;;;;;;;26.55;12.25;;;23.10;99.90;;;;;;5073353;28;20098;-64
2023/06/03 10:59:02;;;;;;;17.65;11.35;;;23.20;99.90;;;;;;5074112;28;20032;-64
2023/06/03 11:01:58;;;;;;;21.90;11.15;;;23.50;99.90;;;;;;5073992;28;20059;-64
2023/06/03 11:04:26;;;;;;;17.45;10.70;;;23.50;99.90;;;;;;5066170;28;20048;-64
2023/06/03 11:06:53;;;;;;;19.30;10.23;;;23.80;99.90;;;;;;5074287;28;20470;-64
2023/06/03 11:09:39;;;;;;;15.98;10.30;;;24.60;96.30;;;;;;5074246;28;20032;-64
2023/06/03 11:12:13;;;;;;;13.00;9.60;;;25.10;99.90;;;;;;5072612;28;20035;-64
2023/06/03 11:14:50;;;;;;;18.13;9.82;;;25.50;99.90;;;;;;5074186;28;20024;-64
2023/06/03 11:17:18;;;;;;;19.73;8.93;;;25.40;99.90;;;;;;5077897;28;20413;-64
2023/06/03 11:19:44;;;;;;;15.45;8.77;;;25.80;99.90;;;;;;5078304;28;20089;-64
2023/06/03 11:22:37;;;;;;;12.55;8.63;;;26.30;99.90;;;;;;5078174;28;20111;-64
2023/06/03 11:25:04;;;;;;;17.60;7.95;;;26.20;99.90;;;;;;5078368;28;20024;-64
2023/06/03 11:27:30;;;;;;;14.52;7.53;;;26.70;99.90;;;;;;5078141;28;20029;-64
2023/06/03 11:29:58;;;;;;;11.38;7.68;;;26.90;99.90;;;;;;5076853;28;20028;-64
2023/06/03 11:32:33;;;;;;;25.77;9.75;;;27.10;99.90;;;;;;5060544;28;20093;-64
2023/06/03 11:34:59;;;;;;;10.45;7.40;;;26.80;99.90;;;;;;5077915;28;20024;-64
2023/06/03 11:37:43;;;;;;;14.30;8.40;;;26.40;99.90;;;;;;5077889;28;20123;-64
2023/06/03 11:40:16;;;;;;;16.77;6.90;;;26.60;99.90;;;;;;5078131;28;20537;-64
2023/06/03 11:42:51;;;;;;;13.77;8.13;;;26.20;99.90;;;;;;5078042;28;20042;-64
2023/06/03 11:45:18;;;;;;;15.32;8.00;;;25.40;99.90;;;;;;5078048;28;20445;-64
2023/06/03 11:47:53;;;;;;;13.18;7.10;;;24.80;99.90;;;;;;5077822;28;20462;-64
2023/06/03 11:50:24;;;;;;;12.32;7.28;;;24.60;99.90;;;;;;5076488;28;20028;-64
2023/06/03 11:52:51;;;;;;;10.32;6.22;;;24.80;99.90;;;;;;5077900;28;20512;-64
2023/06/03 11:55:31;;;;;;;13.18;7.38;;;25.00;99.90;;;;;;5076438;28;20028;-64
2023/06/03 11:58:10;;;;;;;;;;;24.80;99.90;;;;;;5066971;28;20052;-64
2023/06/03 12:00:37;;;;;;;9.43;7.47;;;24.80;99.90;;;;;;5057650;28;19931;-64
2023/06/03 12:03:05;;;;;;;18.95;8.00;;;24.50;99.90;;;;;;5057565;28;20025;-64
2023/06/03 12:05:31;;;;;;;16.20;8.18;;;24.40;99.90;;;;;;5057497;28;20039;-64
2023/06/03 12:07:59;;;;;;;15.15;7.97;;;24.30;99.90;;;;;;5056137;28;20033;-64
2023/06/03 12:10:25;;;;;;;16.80;8.25;;;24.30;99.90;;;;;;5057206;28;20096;-64
2023/06/03 12:12:56;;;;;;;18.30;9.10;;;24.30;99.90;;;;;;5057296;28;20025;-64
2023/06/03 12:15:22;;;;;;;17.15;8.57;;;24.40;99.90;;;;;;5057350;28;20458;-64
2023/06/03 12:17:49;;;;;;;17.13;7.32;;;24.30;99.90;;;;;;5057085;28;20508;-64
2023/06/03 12:20:27;;;;;;;14.43;8.10;;;24.30;99.90;;;;;;5057234;28;20035;-63
2023/06/03 12:23:04;;;;;;;28.25;9.70;;;24.50;99.90;;;;;;5057231;28;20079;-64
2023/06/03 12:25:32;;;;;;;22.35;10.55;;;24.40;99.90;;;;;;5056905;28;20036;-64
2023/06/03 12:27:59;;;;;;;15.13;7.95;;;24.40;99.90;;;;;;5054734;28;20025;-64
2023/06/03 12:30:33;;;;;;;13.73;7.80;;;24.50;99.90;;;;;;5057003;28;20056;-64
2023/06/03 12:33:00;;;;;;;21.45;8.55;;;24.50;99.90;;;;;;5056985;28;20029;-64
2023/06/03 12:35:27;;;;;;;15.63;8.95;;;24.80;99.90;;;;;;5057068;28;20051;-64
2023/06/03 12:38:08;;;;;;;11.88;7.80;;;25.40;99.90;;;;;;5056705;28;20071;-64
2023/06/03 12:40:36;;;;;;;11.68;7.18;;;25.40;99.90;;;;;;5055559;28;20059;-64